sensor_id;sensor_type;location;lat;lon;timestamp;temperature;humidity
2497;DHT22;1259;48.306;14.374;2022-09-03T00:02:00;13.80;99.90
2497;DHT22;1259;48.306;14.374;2022-09-03T00:04:33;13.80;99.90
2497;DHT22;1259;48.306;14.374;2022-09-03T00:07:07;13.70;99.90
2497;DHT22;1259;48.306;14.374;2022-09-03T00:09:40;13.70;99.90
2497;DHT22;1259;48.306;14.374;2022-09-03T00:12:13;13.70;99.90
2497;DHT22;1259;48.306;14.374;2022-09-03T00:14:46;13.70;99.90
2497;DHT22;1259;48.306;14.374;2022-09-03T00:17:20;13.70;99.90
2497;DHT22;1259;48.306;14.374;2022-09-03T00:19:54;13.70;99.90
2497;DHT22;1259;48.306;14.374;2022-09-03T00:22:24;13.60;99.90
2497;DHT22;1259;48.306;14.374;2022-09-03T00:24:53;13.60;99.90
2497;DHT22;1259;48.306;14.374;2022-09-03T00:27:24;13.50;99.90
2497;DHT22;1259;48.306;14.374;2022-09-03T00:29:55;13.50;99.90
2497;DHT22;1259;48.306;14.374;2022-09-03T00:32:28;13.50;99.90
2497;DHT22;1259;48.306;14.374;2022-09-03T00:35:03;13.50;99.90
2497;DHT22;1259;48.306;14.374;2022-09-03T00:37:30;13.50;99.90
2497;DHT22;1259;48.306;14.374;2022-09-03T00:39:58;13.50;99.90
2497;DHT22;1259;48.306;14.374;2022-09-03T00:42:38;13.40;99.90
2497;DHT22;1259;48.306;14.374;2022-09-03T00:45:20;13.40;99.90
2497;DHT22;1259;48.306;14.374;2022-09-03T00:48:01;13.40;99.90
2497;DHT22;1259;48.306;14.374;2022-09-03T00:50:41;13.40;99.90
2497;DHT22;1259;48.306;14.374;2022-09-03T00:53:21;13.40;99.90
2497;DHT22;1259;48.306;14.374;2022-09-03T00:55:55;13.40;99.90
2497;DHT22;1259;48.306;14.374;2022-09-03T00:58:42;13.40;99.90
2497;DHT22;1259;48.306;14.374;2022-09-03T01:01:15;13.40;99.90
2497;DHT22;1259;48.306;14.374;2022-09-03T01:03:53;13.30;99.90
2497;DHT22;1259;48.306;14.374;2022-09-03T01:06:28;13.30;99.90
2497;DHT22;1259;48.306;14.374;2022-09-03T01:09:17;13.30;99.90
2497;DHT22;1259;48.306;14.374;2022-09-03T01:11:54;13.20;99.90
2497;DHT22;1259;48.306;14.374;2022-09-03T01:14:34;13.20;99.90
2497;DHT22;1259;48.306;14.374;2022-09-03T01:17:12;13.30;99.90
2497;DHT22;1259;48.306;14.374;2022-09-03T01:20:06;13.20;99.90
2497;DHT22;1259;48.306;14.374;2022-09-03T01:25:53;13.20;99.90
2497;DHT22;1259;48.306;14.374;2022-09-03T01:28:32;13.10;99.90
2497;DHT22;1259;48.306;14.374;2022-09-03T01:31:15;13.10;99.90
2497;DHT22;1259;48.306;14.374;2022-09-03T01:33:49;13.10;99.90
2497;DHT22;1259;48.306;14.374;2022-09-03T01:36:23;13.20;99.90
2497;DHT22;1259;48.306;14.374;2022-09-03T01:39:00;13.30;99.90
2497;DHT22;1259;48.306;14.374;2022-09-03T01:41:34;13.20;99.90
2497;DHT22;1259;48.306;14.374;2022-09-03T01:44:31;13.30;99.90
2497;DHT22;1259;48.306;14.374;2022-09-03T01:47:11;13.30;99.90
2497;DHT22;1259;48.306;14.374;2022-09-03T01:49:43;13.30;99.90
2497;DHT22;1259;48.306;14.374;2022-09-03T01:52:20;13.20;99.90
2497;DHT22;1259;48.306;14.374;2022-09-03T01:54:58;13.20;99.90
2497;DHT22;1259;48.306;14.374;2022-09-03T01:57:49;13.20;99.90
2497;DHT22;1259;48.306;14.374;2022-09-03T02:00:22;13.10;99.90
2497;DHT22;1259;48.306;14.374;2022-09-03T02:02:50;13.10;99.90
2497;DHT22;1259;48.306;14.374;2022-09-03T02:05:19;13.10;99.90
2497;DHT22;1259;48.306;14.374;2022-09-03T02:07:50;13.10;99.90
2497;DHT22;1259;48.306;14.374;2022-09-03T02:10:20;13.20;99.90
2497;DHT22;1259;48.306;14.374;2022-09-03T02:12:51;13.10;99.90
2497;DHT22;1259;48.306;14.374;2022-09-03T02:15:22;13.10;99.90
2497;DHT22;1259;48.306;14.374;2022-09-03T02:17:53;13.20;99.90
2497;DHT22;1259;48.306;14.374;2022-09-03T02:20:24;13.20;99.90
2497;DHT22;1259;48.306;14.374;2022-09-03T02:22:53;13.20;99.90
2497;DHT22;1259;48.306;14.374;2022-09-03T02:25:22;13.20;99.90
2497;DHT22;1259;48.306;14.374;2022-09-03T02:27:50;13.20;99.90
2497;DHT22;1259;48.306;14.374;2022-09-03T02:30:17;13.10;99.90
2497;DHT22;1259;48.306;14.374;2022-09-03T02:32:45;13.10;99.90
2497;DHT22;1259;48.306;14.374;2022-09-03T02:35:12;13.20;99.90
2497;DHT22;1259;48.306;14.374;2022-09-03T02:37:39;13.10;99.90
2497;DHT22;1259;48.306;14.374;2022-09-03T02:40:07;13.10;99.90
2497;DHT22;1259;48.306;14.374;2022-09-03T02:42:36;13.10;99.90
2497;DHT22;1259;48.306;14.374;2022-09-03T02:45:11;13.10;99.90
2497;DHT22;1259;48.306;14.374;2022-09-03T02:47:40;13.10;99.90
2497;DHT22;1259;48.306;14.374;2022-09-03T02:50:11;13.10;99.90
2497;DHT22;1259;48.306;14.374;2022-09-03T02:52:38;13.10;99.90
2497;DHT22;1259;48.306;14.374;2022-09-03T02:55:05;13.00;99.90
2497;DHT22;1259;48.306;14.374;2022-09-03T02:57:32;12.90;99.90
2497;DHT22;1259;48.306;14.374;2022-09-03T02:59:59;12.90;99.90
2497;DHT22;1259;48.306;14.374;2022-09-03T03:02:26;12.90;99.90
2497;DHT22;1259;48.306;14.374;2022-09-03T03:04:53;12.80;99.90
2497;DHT22;1259;48.306;14.374;2022-09-03T03:07:21;12.80;99.90
2497;DHT22;1259;48.306;14.374;2022-09-03T03:09:48;12.70;99.90
2497;DHT22;1259;48.306;14.374;2022-09-03T03:12:15;12.80;99.90
2497;DHT22;1259;48.306;14.374;2022-09-03T03:14:43;12.80;99.90
2497;DHT22;1259;48.306;14.374;2022-09-03T03:17:10;13.00;99.90
2497;DHT22;1259;48.306;14.374;2022-09-03T03:19:37;12.80;99.90
2497;DHT22;1259;48.306;14.374;2022-09-03T03:22:04;12.60;99.90
2497;DHT22;1259;48.306;14.374;2022-09-03T03:24:32;12.60;99.90
2497;DHT22;1259;48.306;14.374;2022-09-03T03:26:59;12.50;99.90
2497;DHT22;1259;48.306;14.374;2022-09-03T03:29:30;12.50;99.90
2497;DHT22;1259;48.306;14.374;2022-09-03T03:31:57;12.60;99.90
2497;DHT22;1259;48.306;14.374;2022-09-03T03:34:24;12.60;99.90
2497;DHT22;1259;48.306;14.374;2022-09-03T03:36:51;12.60;99.90
2497;DHT22;1259;48.306;14.374;2022-09-03T03:39:18;12.50;99.90
2497;DHT22;1259;48.306;14.374;2022-09-03T03:41:47;12.60;99.90
2497;DHT22;1259;48.306;14.374;2022-09-03T03:44:13;12.70;99.90
2497;DHT22;1259;48.306;14.374;2022-09-03T03:46:42;12.70;99.90
2497;DHT22;1259;48.306;14.374;2022-09-03T03:49:09;12.60;99.90
2497;DHT22;1259;48.306;14.374;2022-09-03T03:51:37;12.60;99.90
2497;DHT22;1259;48.306;14.374;2022-09-03T03:54:05;12.70;99.90
2497;DHT22;1259;48.306;14.374;2022-09-03T03:56:32;12.60;99.90
2497;DHT22;1259;48.306;14.374;2022-09-03T03:59:01;12.60;99.90
2497;DHT22;1259;48.306;14.374;2022-09-03T04:01:29;12.60;99.90
2497;DHT22;1259;48.306;14.374;2022-09-03T04:03:57;12.40;99.90
2497;DHT22;1259;48.306;14.374;2022-09-03T04:06:25;12.20;99.90
2497;DHT22;1259;48.306;14.374;2022-09-03T04:08:52;12.30;99.90
2497;DHT22;1259;48.306;14.374;2022-09-03T04:11:21;12.30;99.90
2497;DHT22;1259;48.306;14.374;2022-09-03T04:13:49;12.40;99.90
2497;DHT22;1259;48.306;14.374;2022-09-03T04:16:19;12.30;99.90
2497;DHT22;1259;48.306;14.374;2022-09-03T04:18:47;12.30;99.90
2497;DHT22;1259;48.306;14.374;2022-09-03T04:21:16;12.40;99.90
2497;DHT22;1259;48.306;14.374;2022-09-03T04:23:45;12.50;99.90
2497;DHT22;1259;48.306;14.374;2022-09-03T04:26:14;12.60;99.90
2497;DHT22;1259;48.306;14.374;2022-09-03T04:28:42;12.70;99.90
2497;DHT22;1259;48.306;14.374;2022-09-03T04:31:12;12.70;99.90
2497;DHT22;1259;48.306;14.374;2022-09-03T04:33:41;12.60;99.90
2497;DHT22;1259;48.306;14.374;2022-09-03T04:36:10;12.60;99.90
2497;DHT22;1259;48.306;14.374;2022-09-03T04:38:38;12.50;99.90
2497;DHT22;1259;48.306;14.374;2022-09-03T04:41:06;12.50;99.90
2497;DHT22;1259;48.306;14.374;2022-09-03T04:43:34;12.50;99.90
2497;DHT22;1259;48.306;14.374;2022-09-03T04:46:04;12.40;99.90
2497;DHT22;1259;48.306;14.374;2022-09-03T04:48:31;12.40;99.90
2497;DHT22;1259;48.306;14.374;2022-09-03T04:51:04;12.30;99.90
2497;DHT22;1259;48.306;14.374;2022-09-03T04:53:31;12.30;99.90
2497;DHT22;1259;48.306;14.374;2022-09-03T04:55:58;12.30;99.90
2497;DHT22;1259;48.306;14.374;2022-09-03T04:58:25;12.50;99.90
2497;DHT22;1259;48.306;14.374;2022-09-03T05:00:52;12.60;99.90
2497;DHT22;1259;48.306;14.374;2022-09-03T05:03:19;12.60;99.90
2497;DHT22;1259;48.306;14.374;2022-09-03T05:05:56;12.70;99.90
2497;DHT22;1259;48.306;14.374;2022-09-03T05:08:24;12.60;99.90
2497;DHT22;1259;48.306;14.374;2022-09-03T05:10:57;12.70;99.90
2497;DHT22;1259;48.306;14.374;2022-09-03T05:13:25;12.80;99.90
2497;DHT22;1259;48.306;14.374;2022-09-03T05:15:57;12.90;99.90
2497;DHT22;1259;48.306;14.374;2022-09-03T05:18:24;13.00;99.90
2497;DHT22;1259;48.306;14.374;2022-09-03T05:20:57;13.10;99.90
2497;DHT22;1259;48.306;14.374;2022-09-03T05:23:25;13.10;99.90
2497;DHT22;1259;48.306;14.374;2022-09-03T05:25:55;13.10;99.90
2497;DHT22;1259;48.306;14.374;2022-09-03T05:28:23;13.00;99.90
2497;DHT22;1259;48.306;14.374;2022-09-03T05:30:58;13.10;99.90
2497;DHT22;1259;48.306;14.374;2022-09-03T05:33:25;13.00;99.90
2497;DHT22;1259;48.306;14.374;2022-09-03T05:35:52;13.10;99.90
2497;DHT22;1259;48.306;14.374;2022-09-03T05:38:19;12.90;99.90
2497;DHT22;1259;48.306;14.374;2022-09-03T05:40:48;12.80;99.90
2497;DHT22;1259;48.306;14.374;2022-09-03T05:43:14;12.80;99.90
2497;DHT22;1259;48.306;14.374;2022-09-03T05:45:42;12.70;99.90
2497;DHT22;1259;48.306;14.374;2022-09-03T05:48:09;12.70;99.90
2497;DHT22;1259;48.306;14.374;2022-09-03T05:50:36;12.70;99.90
2497;DHT22;1259;48.306;14.374;2022-09-03T05:53:03;12.80;99.90
2497;DHT22;1259;48.306;14.374;2022-09-03T05:55:30;12.90;99.90
2497;DHT22;1259;48.306;14.374;2022-09-03T05:57:58;13.20;99.90
2497;DHT22;1259;48.306;14.374;2022-09-03T06:00:25;13.30;99.90
2497;DHT22;1259;48.306;14.374;2022-09-03T06:02:52;13.40;99.90
2497;DHT22;1259;48.306;14.374;2022-09-03T06:05:19;13.60;99.90
2497;DHT22;1259;48.306;14.374;2022-09-03T06:07:46;13.60;99.90
2497;DHT22;1259;48.306;14.374;2022-09-03T06:10:14;13.50;99.90
2497;DHT22;1259;48.306;14.374;2022-09-03T06:12:41;13.70;99.90
2497;DHT22;1259;48.306;14.374;2022-09-03T06:15:11;13.60;99.90
2497;DHT22;1259;48.306;14.374;2022-09-03T06:17:38;13.70;99.90
2497;DHT22;1259;48.306;14.374;2022-09-03T06:20:05;13.60;99.90
2497;DHT22;1259;48.306;14.374;2022-09-03T06:22:32;13.60;99.90
2497;DHT22;1259;48.306;14.374;2022-09-03T06:24:59;13.60;99.90
2497;DHT22;1259;48.306;14.374;2022-09-03T06:27:28;13.80;99.90
2497;DHT22;1259;48.306;14.374;2022-09-03T06:29:55;13.90;99.90
2497;DHT22;1259;48.306;14.374;2022-09-03T06:32:24;14.00;99.90
2497;DHT22;1259;48.306;14.374;2022-09-03T06:34:53;14.20;99.90
2497;DHT22;1259;48.306;14.374;2022-09-03T06:37:20;14.30;99.90
2497;DHT22;1259;48.306;14.374;2022-09-03T06:39:47;14.40;99.90
2497;DHT22;1259;48.306;14.374;2022-09-03T06:42:15;14.60;99.90
2497;DHT22;1259;48.306;14.374;2022-09-03T06:44:42;14.60;99.90
2497;DHT22;1259;48.306;14.374;2022-09-03T06:47:10;14.80;99.90
2497;DHT22;1259;48.306;14.374;2022-09-03T06:49:38;14.90;99.90
2497;DHT22;1259;48.306;14.374;2022-09-03T06:52:05;15.00;99.90
2497;DHT22;1259;48.306;14.374;2022-09-03T06:54:32;15.00;99.90
2497;DHT22;1259;48.306;14.374;2022-09-03T06:56:59;15.00;99.90
2497;DHT22;1259;48.306;14.374;2022-09-03T06:59:26;15.10;99.90
2497;DHT22;1259;48.306;14.374;2022-09-03T07:01:53;15.00;99.90
2497;DHT22;1259;48.306;14.374;2022-09-03T07:04:20;15.00;99.90
2497;DHT22;1259;48.306;14.374;2022-09-03T07:06:50;15.10;99.90
2497;DHT22;1259;48.306;14.374;2022-09-03T07:09:17;15.20;99.90
2497;DHT22;1259;48.306;14.374;2022-09-03T07:11:45;15.40;99.90
2497;DHT22;1259;48.306;14.374;2022-09-03T07:14:16;15.70;99.90
2497;DHT22;1259;48.306;14.374;2022-09-03T07:16:43;15.80;99.90
2497;DHT22;1259;48.306;14.374;2022-09-03T07:19:11;16.00;99.90
2497;DHT22;1259;48.306;14.374;2022-09-03T07:21:38;16.00;99.90
2497;DHT22;1259;48.306;14.374;2022-09-03T07:24:08;16.10;99.90
2497;DHT22;1259;48.306;14.374;2022-09-03T07:26:37;16.20;99.90
2497;DHT22;1259;48.306;14.374;2022-09-03T07:29:05;16.50;99.90
2497;DHT22;1259;48.306;14.374;2022-09-03T07:31:34;16.70;99.90
2497;DHT22;1259;48.306;14.374;2022-09-03T07:34:04;16.20;99.90
2497;DHT22;1259;48.306;14.374;2022-09-03T07:36:35;16.10;99.90
2497;DHT22;1259;48.306;14.374;2022-09-03T07:39:03;16.20;99.90
2497;DHT22;1259;48.306;14.374;2022-09-03T07:41:32;16.40;99.90
2497;DHT22;1259;48.306;14.374;2022-09-03T07:43:59;16.70;99.90
2497;DHT22;1259;48.306;14.374;2022-09-03T07:46:31;16.80;99.90
2497;DHT22;1259;48.306;14.374;2022-09-03T07:48:59;17.10;99.90
2497;DHT22;1259;48.306;14.374;2022-09-03T07:51:28;17.40;99.90
2497;DHT22;1259;48.306;14.374;2022-09-03T07:53:57;17.90;99.90
2497;DHT22;1259;48.306;14.374;2022-09-03T07:56:25;18.10;99.90
2497;DHT22;1259;48.306;14.374;2022-09-03T07:58:57;18.30;99.90
2497;DHT22;1259;48.306;14.374;2022-09-03T08:01:26;18.00;99.90
2497;DHT22;1259;48.306;14.374;2022-09-03T08:03:54;18.20;99.90
2497;DHT22;1259;48.306;14.374;2022-09-03T08:06:22;18.40;99.90
2497;DHT22;1259;48.306;14.374;2022-09-03T08:08:54;18.60;99.90
2497;DHT22;1259;48.306;14.374;2022-09-03T08:11:24;18.60;99.90
2497;DHT22;1259;48.306;14.374;2022-09-03T08:13:54;18.70;99.90
2497;DHT22;1259;48.306;14.374;2022-09-03T08:16:28;18.60;99.90
2497;DHT22;1259;48.306;14.374;2022-09-03T08:18:55;18.10;99.90
2497;DHT22;1259;48.306;14.374;2022-09-03T08:21:23;18.20;99.90
2497;DHT22;1259;48.306;14.374;2022-09-03T08:23:52;18.40;99.90
2497;DHT22;1259;48.306;14.374;2022-09-03T08:26:20;18.50;99.90
2497;DHT22;1259;48.306;14.374;2022-09-03T08:28:47;18.80;99.90
2497;DHT22;1259;48.306;14.374;2022-09-03T08:31:17;19.00;99.90
2497;DHT22;1259;48.306;14.374;2022-09-03T08:33:47;19.00;99.90
2497;DHT22;1259;48.306;14.374;2022-09-03T08:36:16;18.70;99.90
2497;DHT22;1259;48.306;14.374;2022-09-03T08:38:45;18.60;99.90
2497;DHT22;1259;48.306;14.374;2022-09-03T08:41:15;18.70;99.90
2497;DHT22;1259;48.306;14.374;2022-09-03T08:44:08;18.70;99.90
2497;DHT22;1259;48.306;14.374;2022-09-03T08:46:46;18.60;99.90
2497;DHT22;1259;48.306;14.374;2022-09-03T08:49:23;18.30;99.90
2497;DHT22;1259;48.306;14.374;2022-09-03T08:51:54;18.60;99.90
2497;DHT22;1259;48.306;14.374;2022-09-03T08:54:25;18.80;99.90
2497;DHT22;1259;48.306;14.374;2022-09-03T08:56:53;18.90;99.90
2497;DHT22;1259;48.306;14.374;2022-09-03T08:59:21;19.00;99.90
2497;DHT22;1259;48.306;14.374;2022-09-03T09:01:51;19.10;99.90
2497;DHT22;1259;48.306;14.374;2022-09-03T09:04:34;19.00;99.90
2497;DHT22;1259;48.306;14.374;2022-09-03T09:07:10;19.10;99.90
2497;DHT22;1259;48.306;14.374;2022-09-03T09:09:43;19.30;99.90
2497;DHT22;1259;48.306;14.374;2022-09-03T09:12:22;19.40;99.90
2497;DHT22;1259;48.306;14.374;2022-09-03T09:15:04;19.20;99.90
2497;DHT22;1259;48.306;14.374;2022-09-03T09:17:49;19.30;99.90
2497;DHT22;1259;48.306;14.374;2022-09-03T09:20:28;19.60;99.90
2497;DHT22;1259;48.306;14.374;2022-09-03T09:23:00;19.90;99.90
2497;DHT22;1259;48.306;14.374;2022-09-03T09:25:28;19.90;99.90
2497;DHT22;1259;48.306;14.374;2022-09-03T09:27:59;19.60;99.90
2497;DHT22;1259;48.306;14.374;2022-09-03T09:30:27;20.00;99.90
2497;DHT22;1259;48.306;14.374;2022-09-03T09:32:54;20.10;99.90
2497;DHT22;1259;48.306;14.374;2022-09-03T09:35:23;20.20;99.90
2497;DHT22;1259;48.306;14.374;2022-09-03T09:37:51;20.10;99.90
2497;DHT22;1259;48.306;14.374;2022-09-03T09:40:27;20.00;99.90
2497;DHT22;1259;48.306;14.374;2022-09-03T09:43:09;20.00;99.90
2497;DHT22;1259;48.306;14.374;2022-09-03T09:45:37;20.50;99.90
2497;DHT22;1259;48.306;14.374;2022-09-03T09:48:10;20.70;99.90
2497;DHT22;1259;48.306;14.374;2022-09-03T09:50:40;20.80;99.90
2497;DHT22;1259;48.306;14.374;2022-09-03T09:53:09;21.10;99.90
2497;DHT22;1259;48.306;14.374;2022-09-03T09:55:54;20.70;99.90
2497;DHT22;1259;48.306;14.374;2022-09-03T09:58:24;20.70;99.90
2497;DHT22;1259;48.306;14.374;2022-09-03T10:00:56;21.00;99.90
2497;DHT22;1259;48.306;14.374;2022-09-03T10:03:25;21.10;99.90
2497;DHT22;1259;48.306;14.374;2022-09-03T10:06:06;21.20;99.90
2497;DHT22;1259;48.306;14.374;2022-09-03T10:08:54;21.00;99.90
2497;DHT22;1259;48.306;14.374;2022-09-03T10:11:31;21.00;99.90
2497;DHT22;1259;48.306;14.374;2022-09-03T10:14:02;21.20;99.90
2497;DHT22;1259;48.306;14.374;2022-09-03T10:16:36;21.30;99.90
2497;DHT22;1259;48.306;14.374;2022-09-03T10:19:08;21.40;99.90
2497;DHT22;1259;48.306;14.374;2022-09-03T10:21:44;21.60;99.90
2497;DHT22;1259;48.306;14.374;2022-09-03T10:24:26;21.80;99.90
2497;DHT22;1259;48.306;14.374;2022-09-03T10:26:54;21.60;99.90
2497;DHT22;1259;48.306;14.374;2022-09-03T10:29:23;21.70;99.90
2497;DHT22;1259;48.306;14.374;2022-09-03T10:32:00;21.80;99.90
2497;DHT22;1259;48.306;14.374;2022-09-03T10:34:36;21.80;99.90
2497;DHT22;1259;48.306;14.374;2022-09-03T10:37:15;21.80;99.90
2497;DHT22;1259;48.306;14.374;2022-09-03T10:39:55;21.70;99.90
2497;DHT22;1259;48.306;14.374;2022-09-03T10:42:40;22.00;99.90
2497;DHT22;1259;48.306;14.374;2022-09-03T10:45:18;21.80;99.90
2497;DHT22;1259;48.306;14.374;2022-09-03T10:48:10;22.00;99.90
2497;DHT22;1259;48.306;14.374;2022-09-03T10:50:47;22.00;99.90
2497;DHT22;1259;48.306;14.374;2022-09-03T10:53:38;22.00;99.90
2497;DHT22;1259;48.306;14.374;2022-09-03T10:56:14;21.80;99.90
2497;DHT22;1259;48.306;14.374;2022-09-03T10:59:03;21.90;99.90
2497;DHT22;1259;48.306;14.374;2022-09-03T11:01:39;21.90;99.90
2497;DHT22;1259;48.306;14.374;2022-09-03T11:04:22;21.80;99.90
2497;DHT22;1259;48.306;14.374;2022-09-03T11:06:56;22.00;99.90
2497;DHT22;1259;48.306;14.374;2022-09-03T11:09:28;22.20;99.90
2497;DHT22;1259;48.306;14.374;2022-09-03T11:12:00;22.20;99.90
2497;DHT22;1259;48.306;14.374;2022-09-03T11:14:34;22.10;99.90
2497;DHT22;1259;48.306;14.374;2022-09-03T11:17:08;22.10;99.90
2497;DHT22;1259;48.306;14.374;2022-09-03T11:19:41;22.20;99.90
2497;DHT22;1259;48.306;14.374;2022-09-03T11:22:13;22.10;99.90
2497;DHT22;1259;48.306;14.374;2022-09-03T11:24:45;21.90;99.90
2497;DHT22;1259;48.306;14.374;2022-09-03T11:27:33;22.00;99.90
2497;DHT22;1259;48.306;14.374;2022-09-03T11:30:04;22.10;99.90
2497;DHT22;1259;48.306;14.374;2022-09-03T11:32:43;22.30;99.90
2497;DHT22;1259;48.306;14.374;2022-09-03T11:35:14;22.20;99.90
2497;DHT22;1259;48.306;14.374;2022-09-03T11:37:51;22.20;99.90
2497;DHT22;1259;48.306;14.374;2022-09-03T11:40:30;22.50;99.90
2497;DHT22;1259;48.306;14.374;2022-09-03T11:43:06;22.30;99.90
2497;DHT22;1259;48.306;14.374;2022-09-03T11:45:35;22.10;99.90
2497;DHT22;1259;48.306;14.374;2022-09-03T11:48:17;22.30;99.90
2497;DHT22;1259;48.306;14.374;2022-09-03T11:50:52;22.50;99.90
2497;DHT22;1259;48.306;14.374;2022-09-03T11:53:24;22.00;99.90
2497;DHT22;1259;48.306;14.374;2022-09-03T11:55:59;22.20;99.90
2497;DHT22;1259;48.306;14.374;2022-09-03T11:58:29;22.30;99.90
2497;DHT22;1259;48.306;14.374;2022-09-03T12:00:57;22.30;99.90
2497;DHT22;1259;48.306;14.374;2022-09-03T12:03:29;22.30;99.90
2497;DHT22;1259;48.306;14.374;2022-09-03T12:06:29;22.30;99.90
2497;DHT22;1259;48.306;14.374;2022-09-03T12:09:22;22.50;99.90
2497;DHT22;1259;48.306;14.374;2022-09-03T12:12:00;22.60;99.90
2497;DHT22;1259;48.306;14.374;2022-09-03T12:14:34;22.60;99.90
2497;DHT22;1259;48.306;14.374;2022-09-03T12:17:18;22.30;99.90
2497;DHT22;1259;48.306;14.374;2022-09-03T12:19:50;22.00;99.90
2497;DHT22;1259;48.306;14.374;2022-09-03T12:22:20;22.10;99.90
2497;DHT22;1259;48.306;14.374;2022-09-03T12:24:48;22.50;99.90
2497;DHT22;1259;48.306;14.374;2022-09-03T12:27:18;22.70;99.90
2497;DHT22;1259;48.306;14.374;2022-09-03T12:29:53;22.50;99.90
2497;DHT22;1259;48.306;14.374;2022-09-03T12:32:26;22.70;99.90
2497;DHT22;1259;48.306;14.374;2022-09-03T12:34:57;22.70;99.90
2497;DHT22;1259;48.306;14.374;2022-09-03T12:37:25;22.80;99.90
2497;DHT22;1259;48.306;14.374;2022-09-03T12:39:53;22.40;99.90
2497;DHT22;1259;48.306;14.374;2022-09-03T12:42:27;22.40;99.90
2497;DHT22;1259;48.306;14.374;2022-09-03T12:44:55;22.40;99.90
2497;DHT22;1259;48.306;14.374;2022-09-03T12:47:30;22.70;99.90
2497;DHT22;1259;48.306;14.374;2022-09-03T12:50:06;22.70;99.90
2497;DHT22;1259;48.306;14.374;2022-09-03T12:52:35;22.60;99.90
2497;DHT22;1259;48.306;14.374;2022-09-03T12:55:09;22.70;99.90
2497;DHT22;1259;48.306;14.374;2022-09-03T12:57:42;22.70;99.90
2497;DHT22;1259;48.306;14.374;2022-09-03T13:00:14;22.70;99.90
2497;DHT22;1259;48.306;14.374;2022-09-03T13:02:45;22.80;99.90
2497;DHT22;1259;48.306;14.374;2022-09-03T13:05:17;23.20;99.90
2497;DHT22;1259;48.306;14.374;2022-09-03T13:07:48;23.20;99.90
2497;DHT22;1259;48.306;14.374;2022-09-03T13:10:25;23.20;99.90
2497;DHT22;1259;48.306;14.374;2022-09-03T13:12:58;23.40;99.90
2497;DHT22;1259;48.306;14.374;2022-09-03T13:15:25;23.10;99.90
2497;DHT22;1259;48.306;14.374;2022-09-03T13:18:10;23.10;99.50
2497;DHT22;1259;48.306;14.374;2022-09-03T13:20:46;22.90;99.70
2497;DHT22;1259;48.306;14.374;2022-09-03T13:23:30;23.00;99.90
2497;DHT22;1259;48.306;14.374;2022-09-03T13:26:08;23.00;99.90
2497;DHT22;1259;48.306;14.374;2022-09-03T13:28:55;23.00;99.90
2497;DHT22;1259;48.306;14.374;2022-09-03T13:31:30;23.20;99.90
2497;DHT22;1259;48.306;14.374;2022-09-03T13:34:02;23.50;99.90
2497;DHT22;1259;48.306;14.374;2022-09-03T13:36:36;23.70;99.90
2497;DHT22;1259;48.306;14.374;2022-09-03T13:39:15;23.90;99.90
2497;DHT22;1259;48.306;14.374;2022-09-03T13:41:48;23.90;99.90
2497;DHT22;1259;48.306;14.374;2022-09-03T13:44:23;23.90;99.90
2497;DHT22;1259;48.306;14.374;2022-09-03T13:47:00;23.80;99.90
2497;DHT22;1259;48.306;14.374;2022-09-03T13:49:35;23.80;99.90
2497;DHT22;1259;48.306;14.374;2022-09-03T13:52:26;23.90;99.90
2497;DHT22;1259;48.306;14.374;2022-09-03T13:54:58;23.90;99.90
2497;DHT22;1259;48.306;14.374;2022-09-03T13:57:32;23.80;99.90
2497;DHT22;1259;48.306;14.374;2022-09-03T14:00:06;23.60;99.90
2497;DHT22;1259;48.306;14.374;2022-09-03T14:02:44;23.60;99.90
2497;DHT22;1259;48.306;14.374;2022-09-03T14:05:16;23.60;99.90
2497;DHT22;1259;48.306;14.374;2022-09-03T14:07:58;23.70;99.90
2497;DHT22;1259;48.306;14.374;2022-09-03T14:10:33;23.80;99.90
2497;DHT22;1259;48.306;14.374;2022-09-03T14:13:09;23.80;99.90
2497;DHT22;1259;48.306;14.374;2022-09-03T14:15:46;23.80;99.90
2497;DHT22;1259;48.306;14.374;2022-09-03T14:18:22;24.00;99.90
2497;DHT22;1259;48.306;14.374;2022-09-03T14:20:57;24.10;99.90
2497;DHT22;1259;48.306;14.374;2022-09-03T14:23:31;23.80;99.90
2497;DHT22;1259;48.306;14.374;2022-09-03T14:26:04;23.40;99.10
2497;DHT22;1259;48.306;14.374;2022-09-03T14:28:34;23.30;99.90
2497;DHT22;1259;48.306;14.374;2022-09-03T14:31:09;23.50;99.90
2497;DHT22;1259;48.306;14.374;2022-09-03T14:33:44;23.60;99.90
2497;DHT22;1259;48.306;14.374;2022-09-03T14:36:20;23.60;99.90
2497;DHT22;1259;48.306;14.374;2022-09-03T14:39:05;23.50;99.90
2497;DHT22;1259;48.306;14.374;2022-09-03T14:41:57;23.40;99.90
2497;DHT22;1259;48.306;14.374;2022-09-03T14:44:41;23.50;99.90
2497;DHT22;1259;48.306;14.374;2022-09-03T14:47:22;23.50;99.90
2497;DHT22;1259;48.306;14.374;2022-09-03T14:50:10;23.60;99.90
2497;DHT22;1259;48.306;14.374;2022-09-03T14:52:58;23.70;99.90
2497;DHT22;1259;48.306;14.374;2022-09-03T14:55:54;23.60;99.90
2497;DHT22;1259;48.306;14.374;2022-09-03T14:58:36;23.70;99.90
2497;DHT22;1259;48.306;14.374;2022-09-03T15:01:12;23.70;99.90
2497;DHT22;1259;48.306;14.374;2022-09-03T15:04:13;23.70;99.90
2497;DHT22;1259;48.306;14.374;2022-09-03T15:06:54;23.60;99.90
2497;DHT22;1259;48.306;14.374;2022-09-03T15:09:30;23.60;99.90
2497;DHT22;1259;48.306;14.374;2022-09-03T15:12:04;23.50;99.90
2497;DHT22;1259;48.306;14.374;2022-09-03T15:14:38;23.50;99.90
2497;DHT22;1259;48.306;14.374;2022-09-03T15:17:21;23.60;99.90
2497;DHT22;1259;48.306;14.374;2022-09-03T15:20:06;23.60;99.90
2497;DHT22;1259;48.306;14.374;2022-09-03T15:23:01;23.60;99.90
2497;DHT22;1259;48.306;14.374;2022-09-03T15:25:41;23.60;99.90
2497;DHT22;1259;48.306;14.374;2022-09-03T15:28:17;23.50;99.90
2497;DHT22;1259;48.306;14.374;2022-09-03T15:30:53;23.50;99.90
2497;DHT22;1259;48.306;14.374;2022-09-03T15:33:29;23.50;99.90
2497;DHT22;1259;48.306;14.374;2022-09-03T15:36:14;23.40;99.90
2497;DHT22;1259;48.306;14.374;2022-09-03T15:38:47;23.30;99.90
2497;DHT22;1259;48.306;14.374;2022-09-03T15:41:28;23.20;99.90
2497;DHT22;1259;48.306;14.374;2022-09-03T15:43:58;23.20;99.90
2497;DHT22;1259;48.306;14.374;2022-09-03T15:46:44;23.20;99.90
2497;DHT22;1259;48.306;14.374;2022-09-03T15:49:22;23.20;99.90
2497;DHT22;1259;48.306;14.374;2022-09-03T15:51:59;23.10;99.90
2497;DHT22;1259;48.306;14.374;2022-09-03T15:54:37;23.10;99.90
2497;DHT22;1259;48.306;14.374;2022-09-03T15:57:11;23.00;99.90
2497;DHT22;1259;48.306;14.374;2022-09-03T15:59:44;22.90;99.90
2497;DHT22;1259;48.306;14.374;2022-09-03T16:02:15;22.90;99.90
2497;DHT22;1259;48.306;14.374;2022-09-03T16:04:58;22.70;99.90
2497;DHT22;1259;48.306;14.374;2022-09-03T16:07:43;22.70;99.90
2497;DHT22;1259;48.306;14.374;2022-09-03T16:10:15;22.60;99.90
2497;DHT22;1259;48.306;14.374;2022-09-03T16:12:51;22.50;99.90
2497;DHT22;1259;48.306;14.374;2022-09-03T16:15:26;22.60;99.90
2497;DHT22;1259;48.306;14.374;2022-09-03T16:17:58;22.60;99.90
2497;DHT22;1259;48.306;14.374;2022-09-03T16:20:34;22.60;99.90
2497;DHT22;1259;48.306;14.374;2022-09-03T16:23:09;22.60;99.90
2497;DHT22;1259;48.306;14.374;2022-09-03T16:25:46;22.60;99.90